sensor_id;sensor_type;location;lat;lon;timestamp;P1;durP1;ratioP1;P2;durP2;ratioP2
21270;SDS011;10795;50.796;3.860;2023-07-09T00:01:39;5.80;;;3.17;;
21270;SDS011;10795;50.796;3.860;2023-07-09T00:04:07;4.18;;;3.55;;
21270;SDS011;10795;50.796;3.860;2023-07-09T00:06:35;7.82;;;3.78;;
21270;SDS011;10795;50.796;3.860;2023-07-09T00:09:00;5.05;;;3.70;;
21270;SDS011;10795;50.796;3.860;2023-07-09T00:11:26;6.90;;;4.10;;
21270;SDS011;10795;50.796;3.860;2023-07-09T00:13:52;7.30;;;3.90;;
21270;SDS011;10795;50.796;3.860;2023-07-09T00:16:23;5.15;;;3.90;;
21270;SDS011;10795;50.796;3.860;2023-07-09T00:18:50;5.13;;;3.65;;
21270;SDS011;10795;50.796;3.860;2023-07-09T00:21:17;6.35;;;3.80;;
21270;SDS011;10795;50.796;3.860;2023-07-09T00:23:47;6.20;;;3.97;;
21270;SDS011;10795;50.796;3.860;2023-07-09T00:26:14;6.20;;;4.10;;
21270;SDS011;10795;50.796;3.860;2023-07-09T00:28:41;4.60;;;3.90;;
21270;SDS011;10795;50.796;3.860;2023-07-09T00:31:11;6.13;;;3.75;;
21270;SDS011;10795;50.796;3.860;2023-07-09T00:33:42;5.03;;;4.03;;
21270;SDS011;10795;50.796;3.860;2023-07-09T00:36:30;6.57;;;3.92;;
21270;SDS011;10795;50.796;3.860;2023-07-09T00:38:57;5.03;;;4.30;;
21270;SDS011;10795;50.796;3.860;2023-07-09T00:41:24;7.10;;;4.82;;
21270;SDS011;10795;50.796;3.860;2023-07-09T00:43:52;5.75;;;4.25;;
21270;SDS011;10795;50.796;3.860;2023-07-09T00:49:03;7.25;;;4.85;;
21270;SDS011;10795;50.796;3.860;2023-07-09T00:51:36;6.22;;;4.28;;
21270;SDS011;10795;50.796;3.860;2023-07-09T00:54:26;5.88;;;4.00;;
21270;SDS011;10795;50.796;3.860;2023-07-09T00:56:57;8.55;;;5.25;;
21270;SDS011;10795;50.796;3.860;2023-07-09T00:59:26;6.97;;;4.97;;
21270;SDS011;10795;50.796;3.860;2023-07-09T01:01:54;6.70;;;5.13;;
21270;SDS011;10795;50.796;3.860;2023-07-09T01:04:21;8.38;;;4.88;;
21270;SDS011;10795;50.796;3.860;2023-07-09T01:06:52;7.00;;;4.97;;
21270;SDS011;10795;50.796;3.860;2023-07-09T01:09:21;8.07;;;4.90;;
21270;SDS011;10795;50.796;3.860;2023-07-09T01:11:48;7.47;;;5.20;;
21270;SDS011;10795;50.796;3.860;2023-07-09T01:14:16;6.43;;;4.72;;
21270;SDS011;10795;50.796;3.860;2023-07-09T01:16:52;6.50;;;4.70;;
21270;SDS011;10795;50.796;3.860;2023-07-09T01:19:23;6.55;;;4.35;;
21270;SDS011;10795;50.796;3.860;2023-07-09T01:21:57;10.02;;;4.90;;
21270;SDS011;10795;50.796;3.860;2023-07-09T01:27:25;4.50;;;3.38;;
21270;SDS011;10795;50.796;3.860;2023-07-09T01:29:56;5.15;;;4.30;;
21270;SDS011;10795;50.796;3.860;2023-07-09T01:32:24;5.07;;;4.00;;
21270;SDS011;10795;50.796;3.860;2023-07-09T01:34:51;7.53;;;4.78;;
21270;SDS011;10795;50.796;3.860;2023-07-09T01:37:20;9.10;;;4.30;;
21270;SDS011;10795;50.796;3.860;2023-07-09T01:39:50;5.00;;;4.50;;
21270;SDS011;10795;50.796;3.860;2023-07-09T01:42:17;6.65;;;4.88;;
21270;SDS011;10795;50.796;3.860;2023-07-09T01:44:47;7.35;;;4.63;;
21270;SDS011;10795;50.796;3.860;2023-07-09T01:47:15;3.60;;;2.83;;
21270;SDS011;10795;50.796;3.860;2023-07-09T01:49:42;7.38;;;4.55;;
21270;SDS011;10795;50.796;3.860;2023-07-09T01:52:11;7.25;;;3.97;;
21270;SDS011;10795;50.796;3.860;2023-07-09T01:54:39;7.82;;;4.50;;
21270;SDS011;10795;50.796;3.860;2023-07-09T01:57:13;2.78;;;2.47;;
21270;SDS011;10795;50.796;3.860;2023-07-09T01:59:51;5.82;;;3.10;;
21270;SDS011;10795;50.796;3.860;2023-07-09T02:02:23;8.02;;;4.63;;
21270;SDS011;10795;50.796;3.860;2023-07-09T02:04:54;3.80;;;3.15;;
21270;SDS011;10795;50.796;3.860;2023-07-09T02:07:21;6.10;;;4.15;;
21270;SDS011;10795;50.796;3.860;2023-07-09T02:09:49;6.53;;;4.95;;
21270;SDS011;10795;50.796;3.860;2023-07-09T02:12:15;7.95;;;5.50;;
21270;SDS011;10795;50.796;3.860;2023-07-09T02:14:42;6.03;;;3.92;;
21270;SDS011;10795;50.796;3.860;2023-07-09T02:17:10;6.40;;;4.00;;
21270;SDS011;10795;50.796;3.860;2023-07-09T02:19:37;14.25;;;5.25;;
21270;SDS011;10795;50.796;3.860;2023-07-09T02:22:05;7.93;;;4.32;;
21270;SDS011;10795;50.796;3.860;2023-07-09T02:24:32;10.15;;;4.82;;
21270;SDS011;10795;50.796;3.860;2023-07-09T02:26:59;8.07;;;4.85;;
21270;SDS011;10795;50.796;3.860;2023-07-09T02:29:26;7.32;;;4.85;;
21270;SDS011;10795;50.796;3.860;2023-07-09T02:31:55;6.22;;;5.00;;
21270;SDS011;10795;50.796;3.860;2023-07-09T02:34:22;7.30;;;5.25;;
21270;SDS011;10795;50.796;3.860;2023-07-09T02:36:53;8.70;;;5.77;;
21270;SDS011;10795;50.796;3.860;2023-07-09T02:39:21;6.95;;;4.20;;
21270;SDS011;10795;50.796;3.860;2023-07-09T02:41:48;9.90;;;5.97;;
21270;SDS011;10795;50.796;3.860;2023-07-09T02:44:15;13.02;;;7.10;;
21270;SDS011;10795;50.796;3.860;2023-07-09T02:46:42;9.52;;;6.50;;
21270;SDS011;10795;50.796;3.860;2023-07-09T02:49:08;10.63;;;7.10;;
21270;SDS011;10795;50.796;3.860;2023-07-09T02:51:35;9.73;;;7.40;;
21270;SDS011;10795;50.796;3.860;2023-07-09T02:54:02;5.68;;;3.78;;
21270;SDS011;10795;50.796;3.860;2023-07-09T02:56:29;12.50;;;9.15;;
21270;SDS011;10795;50.796;3.860;2023-07-09T02:58:55;17.48;;;12.55;;
21270;SDS011;10795;50.796;3.860;2023-07-09T03:01:21;16.42;;;12.43;;
21270;SDS011;10795;50.796;3.860;2023-07-09T03:03:59;21.48;;;13.52;;
21270;SDS011;10795;50.796;3.860;2023-07-09T03:06:27;14.45;;;11.30;;
21270;SDS011;10795;50.796;3.860;2023-07-09T03:08:53;27.05;;;19.27;;
21270;SDS011;10795;50.796;3.860;2023-07-09T03:11:19;29.23;;;20.13;;
21270;SDS011;10795;50.796;3.860;2023-07-09T03:13:46;30.20;;;23.20;;
21270;SDS011;10795;50.796;3.860;2023-07-09T03:16:12;34.22;;;23.08;;
21270;SDS011;10795;50.796;3.860;2023-07-09T03:18:38;30.90;;;23.58;;
21270;SDS011;10795;50.796;3.860;2023-07-09T03:21:04;37.50;;;26.63;;
21270;SDS011;10795;50.796;3.860;2023-07-09T03:23:30;22.42;;;18.13;;
21270;SDS011;10795;50.796;3.860;2023-07-09T03:25:59;37.38;;;27.65;;
21270;SDS011;10795;50.796;3.860;2023-07-09T03:28:29;24.85;;;19.63;;
21270;SDS011;10795;50.796;3.860;2023-07-09T03:30:57;40.93;;;31.37;;
21270;SDS011;10795;50.796;3.860;2023-07-09T03:33:23;42.08;;;32.90;;
21270;SDS011;10795;50.796;3.860;2023-07-09T03:35:50;44.88;;;35.10;;
21270;SDS011;10795;50.796;3.860;2023-07-09T03:38:17;48.60;;;37.53;;
21270;SDS011;10795;50.796;3.860;2023-07-09T03:40:44;49.88;;;40.97;;
21270;SDS011;10795;50.796;3.860;2023-07-09T03:43:10;57.85;;;43.50;;
21270;SDS011;10795;50.796;3.860;2023-07-09T03:45:37;59.30;;;46.78;;
21270;SDS011;10795;50.796;3.860;2023-07-09T03:48:05;65.75;;;49.25;;
21270;SDS011;10795;50.796;3.860;2023-07-09T03:50:31;63.58;;;47.22;;
21270;SDS011;10795;50.796;3.860;2023-07-09T03:52:57;67.60;;;50.60;;
21270;SDS011;10795;50.796;3.860;2023-07-09T03:55:23;60.00;;;45.17;;
21270;SDS011;10795;50.796;3.860;2023-07-09T03:57:52;57.05;;;46.60;;
21270;SDS011;10795;50.796;3.860;2023-07-09T04:00:19;62.40;;;50.75;;
21270;SDS011;10795;50.796;3.860;2023-07-09T04:02:45;31.55;;;23.15;;
21270;SDS011;10795;50.796;3.860;2023-07-09T04:05:11;63.70;;;48.25;;
21270;SDS011;10795;50.796;3.860;2023-07-09T04:07:37;57.80;;;45.95;;
21270;SDS011;10795;50.796;3.860;2023-07-09T04:10:03;58.45;;;45.00;;
21270;SDS011;10795;50.796;3.860;2023-07-09T04:12:30;58.40;;;45.90;;
21270;SDS011;10795;50.796;3.860;2023-07-09T04:14:56;59.22;;;47.88;;
21270;SDS011;10795;50.796;3.860;2023-07-09T04:17:22;34.03;;;26.52;;
21270;SDS011;10795;50.796;3.860;2023-07-09T04:19:49;69.57;;;50.97;;
21270;SDS011;10795;50.796;3.860;2023-07-09T04:22:15;71.63;;;53.25;;
21270;SDS011;10795;50.796;3.860;2023-07-09T04:24:41;62.33;;;49.47;;
21270;SDS011;10795;50.796;3.860;2023-07-09T04:27:08;59.67;;;46.70;;
21270;SDS011;10795;50.796;3.860;2023-07-09T04:29:33;55.47;;;42.45;;
21270;SDS011;10795;50.796;3.860;2023-07-09T04:32:01;68.22;;;53.90;;
21270;SDS011;10795;50.796;3.860;2023-07-09T04:34:27;76.32;;;57.38;;
21270;SDS011;10795;50.796;3.860;2023-07-09T04:36:55;73.70;;;56.17;;
21270;SDS011;10795;50.796;3.860;2023-07-09T04:39:22;71.30;;;54.67;;
21270;SDS011;10795;50.796;3.860;2023-07-09T04:41:48;81.57;;;60.08;;
21270;SDS011;10795;50.796;3.860;2023-07-09T04:44:14;83.97;;;61.28;;
21270;SDS011;10795;50.796;3.860;2023-07-09T04:46:39;82.53;;;61.58;;
21270;SDS011;10795;50.796;3.860;2023-07-09T04:49:05;76.72;;;58.15;;
21270;SDS011;10795;50.796;3.860;2023-07-09T04:51:31;76.60;;;55.60;;
21270;SDS011;10795;50.796;3.860;2023-07-09T04:53:57;76.43;;;55.85;;
21270;SDS011;10795;50.796;3.860;2023-07-09T04:56:23;58.47;;;44.28;;
21270;SDS011;10795;50.796;3.860;2023-07-09T04:58:49;77.10;;;56.33;;
21270;SDS011;10795;50.796;3.860;2023-07-09T05:01:15;35.33;;;25.20;;
21270;SDS011;10795;50.796;3.860;2023-07-09T05:03:40;60.45;;;45.17;;
21270;SDS011;10795;50.796;3.860;2023-07-09T05:06:06;16.88;;;12.93;;
21270;SDS011;10795;50.796;3.860;2023-07-09T05:08:32;54.83;;;41.63;;
21270;SDS011;10795;50.796;3.860;2023-07-09T05:10:58;67.78;;;51.60;;
21270;SDS011;10795;50.796;3.860;2023-07-09T05:13:24;71.43;;;55.42;;
21270;SDS011;10795;50.796;3.860;2023-07-09T05:15:51;42.08;;;32.50;;
21270;SDS011;10795;50.796;3.860;2023-07-09T05:18:17;73.90;;;56.10;;
21270;SDS011;10795;50.796;3.860;2023-07-09T05:20:43;72.53;;;55.67;;
21270;SDS011;10795;50.796;3.860;2023-07-09T05:23:11;70.90;;;52.28;;
21270;SDS011;10795;50.796;3.860;2023-07-09T05:25:37;76.13;;;56.78;;
21270;SDS011;10795;50.796;3.860;2023-07-09T05:28:03;76.65;;;56.88;;
21270;SDS011;10795;50.796;3.860;2023-07-09T05:32:58;75.95;;;56.65;;
21270;SDS011;10795;50.796;3.860;2023-07-09T05:35:25;75.70;;;55.10;;
21270;SDS011;10795;50.796;3.860;2023-07-09T05:37:55;44.08;;;32.40;;
21270;SDS011;10795;50.796;3.860;2023-07-09T05:42:47;11.82;;;8.93;;
21270;SDS011;10795;50.796;3.860;2023-07-09T05:45:13;31.05;;;22.95;;
21270;SDS011;10795;50.796;3.860;2023-07-09T05:47:40;46.25;;;31.55;;
21270;SDS011;10795;50.796;3.860;2023-07-09T05:50:06;44.97;;;31.88;;
21270;SDS011;10795;50.796;3.860;2023-07-09T05:52:33;72.60;;;52.42;;
21270;SDS011;10795;50.796;3.860;2023-07-09T05:54:59;65.78;;;47.83;;
21270;SDS011;10795;50.796;3.860;2023-07-09T05:57:25;69.55;;;50.53;;
21270;SDS011;10795;50.796;3.860;2023-07-09T05:59:51;23.33;;;16.27;;
21270;SDS011;10795;50.796;3.860;2023-07-09T06:02:19;61.78;;;47.33;;
21270;SDS011;10795;50.796;3.860;2023-07-09T06:04:46;32.63;;;23.15;;
21270;SDS011;10795;50.796;3.860;2023-07-09T06:07:14;43.90;;;33.03;;
21270;SDS011;10795;50.796;3.860;2023-07-09T06:09:40;47.08;;;33.00;;
21270;SDS011;10795;50.796;3.860;2023-07-09T06:12:07;45.17;;;31.90;;
21270;SDS011;10795;50.796;3.860;2023-07-09T06:14:33;40.45;;;29.45;;
21270;SDS011;10795;50.796;3.860;2023-07-09T06:17:00;46.38;;;32.33;;
21270;SDS011;10795;50.796;3.860;2023-07-09T06:19:26;29.05;;;22.17;;
21270;SDS011;10795;50.796;3.860;2023-07-09T06:21:52;16.90;;;13.00;;
21270;SDS011;10795;50.796;3.860;2023-07-09T06:24:18;30.63;;;19.98;;
21270;SDS011;10795;50.796;3.860;2023-07-09T06:26:44;17.75;;;12.30;;
21270;SDS011;10795;50.796;3.860;2023-07-09T06:29:10;13.73;;;9.98;;
21270;SDS011;10795;50.796;3.860;2023-07-09T06:31:35;10.40;;;5.43;;
21270;SDS011;10795;50.796;3.860;2023-07-09T06:34:02;17.00;;;10.20;;
21270;SDS011;10795;50.796;3.860;2023-07-09T06:36:28;13.27;;;10.38;;
21270;SDS011;10795;50.796;3.860;2023-07-09T06:38:54;7.95;;;5.65;;
21270;SDS011;10795;50.796;3.860;2023-07-09T06:41:20;11.90;;;9.23;;
21270;SDS011;10795;50.796;3.860;2023-07-09T06:43:46;15.20;;;9.25;;
21270;SDS011;10795;50.796;3.860;2023-07-09T06:46:13;15.07;;;10.38;;
21270;SDS011;10795;50.796;3.860;2023-07-09T06:48:39;5.13;;;3.30;;
21270;SDS011;10795;50.796;3.860;2023-07-09T06:51:05;12.65;;;8.70;;
21270;SDS011;10795;50.796;3.860;2023-07-09T06:53:31;7.13;;;5.85;;
21270;SDS011;10795;50.796;3.860;2023-07-09T06:55:57;6.82;;;3.92;;
21270;SDS011;10795;50.796;3.860;2023-07-09T06:58:26;4.50;;;3.75;;
21270;SDS011;10795;50.796;3.860;2023-07-09T07:00:56;13.00;;;8.90;;
21270;SDS011;10795;50.796;3.860;2023-07-09T07:03:23;12.50;;;9.02;;
21270;SDS011;10795;50.796;3.860;2023-07-09T07:05:50;9.18;;;6.82;;
21270;SDS011;10795;50.796;3.860;2023-07-09T07:08:19;11.68;;;7.63;;
21270;SDS011;10795;50.796;3.860;2023-07-09T07:10:48;6.18;;;4.85;;
21270;SDS011;10795;50.796;3.860;2023-07-09T07:13:15;8.98;;;5.10;;
21270;SDS011;10795;50.796;3.860;2023-07-09T07:15:41;6.82;;;4.22;;
21270;SDS011;10795;50.796;3.860;2023-07-09T07:18:12;9.57;;;6.97;;
21270;SDS011;10795;50.796;3.860;2023-07-09T07:20:41;5.82;;;4.07;;
21270;SDS011;10795;50.796;3.860;2023-07-09T07:23:08;5.78;;;4.70;;
21270;SDS011;10795;50.796;3.860;2023-07-09T07:25:34;5.07;;;3.75;;
21270;SDS011;10795;50.796;3.860;2023-07-09T07:27:59;7.47;;;4.68;;
21270;SDS011;10795;50.796;3.860;2023-07-09T07:30:25;12.65;;;7.88;;
21270;SDS011;10795;50.796;3.860;2023-07-09T07:32:51;8.07;;;5.30;;
21270;SDS011;10795;50.796;3.860;2023-07-09T07:35:17;8.05;;;5.55;;
21270;SDS011;10795;50.796;3.860;2023-07-09T07:37:44;6.22;;;4.05;;
21270;SDS011;10795;50.796;3.860;2023-07-09T07:40:10;11.20;;;7.05;;
21270;SDS011;10795;50.796;3.860;2023-07-09T07:42:36;12.05;;;8.80;;
21270;SDS011;10795;50.796;3.860;2023-07-09T07:45:02;6.60;;;3.15;;
21270;SDS011;10795;50.796;3.860;2023-07-09T07:47:28;7.05;;;4.38;;
21270;SDS011;10795;50.796;3.860;2023-07-09T07:49:55;13.00;;;7.70;;
21270;SDS011;10795;50.796;3.860;2023-07-09T07:52:22;10.43;;;7.60;;
21270;SDS011;10795;50.796;3.860;2023-07-09T07:54:48;9.48;;;7.72;;
21270;SDS011;10795;50.796;3.860;2023-07-09T07:57:14;11.05;;;6.35;;
21270;SDS011;10795;50.796;3.860;2023-07-09T07:59:41;5.95;;;4.65;;
21270;SDS011;10795;50.796;3.860;2023-07-09T08:02:08;9.02;;;5.75;;
21270;SDS011;10795;50.796;3.860;2023-07-09T08:04:36;12.13;;;5.70;;
21270;SDS011;10795;50.796;3.860;2023-07-09T08:07:03;8.77;;;5.63;;
21270;SDS011;10795;50.796;3.860;2023-07-09T08:09:29;11.55;;;5.82;;
21270;SDS011;10795;50.796;3.860;2023-07-09T08:11:55;8.98;;;6.03;;
21270;SDS011;10795;50.796;3.860;2023-07-09T08:14:21;7.50;;;6.35;;
21270;SDS011;10795;50.796;3.860;2023-07-09T08:16:47;7.65;;;6.22;;
21270;SDS011;10795;50.796;3.860;2023-07-09T08:19:13;6.20;;;4.53;;
21270;SDS011;10795;50.796;3.860;2023-07-09T08:21:39;10.32;;;5.93;;
21270;SDS011;10795;50.796;3.860;2023-07-09T08:24:05;5.63;;;3.80;;
21270;SDS011;10795;50.796;3.860;2023-07-09T08:26:31;4.07;;;2.97;;
21270;SDS011;10795;50.796;3.860;2023-07-09T08:28:57;9.40;;;5.53;;
21270;SDS011;10795;50.796;3.860;2023-07-09T08:31:23;9.32;;;5.60;;
21270;SDS011;10795;50.796;3.860;2023-07-09T08:33:50;10.38;;;4.82;;
21270;SDS011;10795;50.796;3.860;2023-07-09T08:36:16;3.08;;;2.58;;
21270;SDS011;10795;50.796;3.860;2023-07-09T08:38:42;5.35;;;4.00;;
21270;SDS011;10795;50.796;3.860;2023-07-09T08:44:11;8.90;;;5.40;;
21270;SDS011;10795;50.796;3.860;2023-07-09T08:47:11;3.90;;;3.42;;
21270;SDS011;10795;50.796;3.860;2023-07-09T08:49:43;3.40;;;2.80;;
21270;SDS011;10795;50.796;3.860;2023-07-09T08:52:40;8.40;;;4.93;;
21270;SDS011;10795;50.796;3.860;2023-07-09T08:55:12;8.13;;;5.60;;
21270;SDS011;10795;50.796;3.860;2023-07-09T08:57:44;7.88;;;5.60;;
21270;SDS011;10795;50.796;3.860;2023-07-09T09:03:00;5.55;;;3.85;;
21270;SDS011;10795;50.796;3.860;2023-07-09T09:05:37;5.38;;;3.28;;
21270;SDS011;10795;50.796;3.860;2023-07-09T09:08:19;9.30;;;5.78;;
21270;SDS011;10795;50.796;3.860;2023-07-09T09:13:50;8.35;;;5.10;;
21270;SDS011;10795;50.796;3.860;2023-07-09T09:16:33;7.35;;;5.10;;
21270;SDS011;10795;50.796;3.860;2023-07-09T09:19:13;7.88;;;5.00;;
21270;SDS011;10795;50.796;3.860;2023-07-09T09:21:45;8.35;;;4.60;;
21270;SDS011;10795;50.796;3.860;2023-07-09T09:26:44;7.57;;;4.40;;
21270;SDS011;10795;50.796;3.860;2023-07-09T09:29:14;3.70;;;3.20;;
21270;SDS011;10795;50.796;3.860;2023-07-09T09:31:49;6.30;;;3.78;;
21270;SDS011;10795;50.796;3.860;2023-07-09T09:34:29;4.38;;;3.25;;
21270;SDS011;10795;50.796;3.860;2023-07-09T09:36:56;7.80;;;4.85;;
21270;SDS011;10795;50.796;3.860;2023-07-09T09:39:25;4.00;;;3.60;;
21270;SDS011;10795;50.796;3.860;2023-07-09T09:41:55;3.88;;;2.90;;
21270;SDS011;10795;50.796;3.860;2023-07-09T09:44:26;4.75;;;3.40;;
21270;SDS011;10795;50.796;3.860;2023-07-09T09:46:55;3.65;;;3.25;;
21270;SDS011;10795;50.796;3.860;2023-07-09T09:49:22;8.00;;;4.75;;
21270;SDS011;10795;50.796;3.860;2023-07-09T09:51:48;3.58;;;2.70;;
21270;SDS011;10795;50.796;3.860;2023-07-09T09:54:23;2.92;;;2.63;;
21270;SDS011;10795;50.796;3.860;2023-07-09T09:56:52;4.07;;;3.35;;
21270;SDS011;10795;50.796;3.860;2023-07-09T09:59:25;6.18;;;3.17;;
21270;SDS011;10795;50.796;3.860;2023-07-09T10:01:59;4.22;;;3.00;;
21270;SDS011;10795;50.796;3.860;2023-07-09T10:04:26;5.82;;;3.47;;
21270;SDS011;10795;50.796;3.860;2023-07-09T10:06:56;6.50;;;3.90;;
21270;SDS011;10795;50.796;3.860;2023-07-09T10:15:11;5.13;;;2.55;;
21270;SDS011;10795;50.796;3.860;2023-07-09T10:20:46;6.68;;;3.88;;
21270;SDS011;10795;50.796;3.860;2023-07-09T10:23:23;4.03;;;2.65;;
21270;SDS011;10795;50.796;3.860;2023-07-09T10:26:18;4.10;;;2.72;;
21270;SDS011;10795;50.796;3.860;2023-07-09T10:34:21;3.70;;;2.65;;
21270;SDS011;10795;50.796;3.860;2023-07-09T10:37:06;6.10;;;3.17;;
21270;SDS011;10795;50.796;3.860;2023-07-09T10:39:57;5.40;;;2.80;;
21270;SDS011;10795;50.796;3.860;2023-07-09T10:42:35;4.97;;;2.83;;
21270;SDS011;10795;50.796;3.860;2023-07-09T10:45:11;5.45;;;2.80;;
21270;SDS011;10795;50.796;3.860;2023-07-09T10:47:57;4.45;;;2.42;;
21270;SDS011;10795;50.796;3.860;2023-07-09T10:50:41;4.60;;;2.70;;
21270;SDS011;10795;50.796;3.860;2023-07-09T10:56:11;7.43;;;2.90;;
21270;SDS011;10795;50.796;3.860;2023-07-09T10:58:55;6.65;;;3.20;;
21270;SDS011;10795;50.796;3.860;2023-07-09T11:01:28;3.72;;;2.17;;
21270;SDS011;10795;50.796;3.860;2023-07-09T11:03:59;4.00;;;2.60;;
21270;SDS011;10795;50.796;3.860;2023-07-09T11:06:36;4.75;;;2.33;;
21270;SDS011;10795;50.796;3.860;2023-07-09T11:09:09;4.93;;;3.00;;
21270;SDS011;10795;50.796;3.860;2023-07-09T11:11:50;4.43;;;2.47;;
21270;SDS011;10795;50.796;3.860;2023-07-09T11:14:25;5.55;;;2.25;;
21270;SDS011;10795;50.796;3.860;2023-07-09T11:16:58;4.32;;;2.17;;
21270;SDS011;10795;50.796;3.860;2023-07-09T11:19:26;4.35;;;3.00;;
21270;SDS011;10795;50.796;3.860;2023-07-09T11:22:03;4.30;;;3.08;;
21270;SDS011;10795;50.796;3.860;2023-07-09T11:24:49;5.85;;;3.20;;
21270;SDS011;10795;50.796;3.860;2023-07-09T11:27:24;6.07;;;3.10;;
21270;SDS011;10795;50.796;3.860;2023-07-09T11:30:00;4.53;;;2.63;;
21270;SDS011;10795;50.796;3.860;2023-07-09T11:32:30;6.15;;;2.97;;
21270;SDS011;10795;50.796;3.860;2023-07-09T11:35:05;5.20;;;3.25;;
21270;SDS011;10795;50.796;3.860;2023-07-09T11:37:43;3.90;;;2.50;;
21270;SDS011;10795;50.796;3.860;2023-07-09T11:40:10;5.68;;;3.90;;
21270;SDS011;10795;50.796;3.860;2023-07-09T11:42:55;6.97;;;3.33;;
21270;SDS011;10795;50.796;3.860;2023-07-09T11:45:24;4.95;;;3.20;;
21270;SDS011;10795;50.796;3.860;2023-07-09T11:47:57;6.93;;;3.80;;
21270;SDS011;10795;50.796;3.860;2023-07-09T11:50:44;6.35;;;4.80;;
21270;SDS011;10795;50.796;3.860;2023-07-09T11:53:21;5.78;;;4.30;;
21270;SDS011;10795;50.796;3.860;2023-07-09T11:55:54;8.32;;;4.45;;
21270;SDS011;10795;50.796;3.860;2023-07-09T11:58:19;2.35;;;2.10;;
21270;SDS011;10795;50.796;3.860;2023-07-09T12:00:46;5.30;;;3.80;;
21270;SDS011;10795;50.796;3.860;2023-07-09T12:03:15;11.20;;;4.63;;
21270;SDS011;10795;50.796;3.860;2023-07-09T12:05:51;3.47;;;2.90;;
21270;SDS011;10795;50.796;3.860;2023-07-09T12:08:38;6.70;;;5.07;;
21270;SDS011;10795;50.796;3.860;2023-07-09T12:11:17;10.90;;;5.78;;
21270;SDS011;10795;50.796;3.860;2023-07-09T12:13:48;8.45;;;5.45;;
21270;SDS011;10795;50.796;3.860;2023-07-09T12:16:25;11.77;;;5.82;;
21270;SDS011;10795;50.796;3.860;2023-07-09T12:18:52;7.15;;;5.20;;
21270;SDS011;10795;50.796;3.860;2023-07-09T12:21:19;8.48;;;5.15;;
21270;SDS011;10795;50.796;3.860;2023-07-09T12:23:45;9.18;;;5.35;;
21270;SDS011;10795;50.796;3.860;2023-07-09T12:26:12;8.30;;;5.20;;
21270;SDS011;10795;50.796;3.860;2023-07-09T12:28:40;7.75;;;4.10;;
21270;SDS011;10795;50.796;3.860;2023-07-09T12:31:12;7.60;;;4.95;;
21270;SDS011;10795;50.796;3.860;2023-07-09T12:33:46;5.88;;;3.03;;
21270;SDS011;10795;50.796;3.860;2023-07-09T12:36:18;7.35;;;5.00;;
21270;SDS011;10795;50.796;3.860;2023-07-09T12:38:47;7.22;;;4.43;;
21270;SDS011;10795;50.796;3.860;2023-07-09T12:44:16;10.00;;;4.60;;
21270;SDS011;10795;50.796;3.860;2023-07-09T12:46:46;8.43;;;4.68;;
21270;SDS011;10795;50.796;3.860;2023-07-09T12:49:22;7.32;;;4.60;;
21270;SDS011;10795;50.796;3.860;2023-07-09T12:51:51;12.77;;;5.72;;
21270;SDS011;10795;50.796;3.860;2023-07-09T12:56:46;6.53;;;4.47;;
21270;SDS011;10795;50.796;3.860;2023-07-09T12:59:23;8.63;;;5.70;;
21270;SDS011;10795;50.796;3.860;2023-07-09T13:04:15;4.10;;;2.40;;
21270;SDS011;10795;50.796;3.860;2023-07-09T13:06:41;4.20;;;2.80;;
21270;SDS011;10795;50.796;3.860;2023-07-09T13:09:18;4.53;;;2.83;;
21270;SDS011;10795;50.796;3.860;2023-07-09T13:11:46;7.10;;;4.53;;
21270;SDS011;10795;50.796;3.860;2023-07-09T13:14:24;4.55;;;3.33;;
21270;SDS011;10795;50.796;3.860;2023-07-09T13:19:18;3.22;;;2.78;;
21270;SDS011;10795;50.796;3.860;2023-07-09T13:21:44;6.57;;;4.50;;
21270;SDS011;10795;50.796;3.860;2023-07-09T13:24:22;7.50;;;4.85;;
21270;SDS011;10795;50.796;3.860;2023-07-09T13:26:50;4.05;;;2.22;;
21270;SDS011;10795;50.796;3.860;2023-07-09T13:29:16;9.60;;;5.80;;
21270;SDS011;10795;50.796;3.860;2023-07-09T13:31:44;7.57;;;5.15;;
21270;SDS011;10795;50.796;3.860;2023-07-09T13:34:17;10.90;;;6.75;;
21270;SDS011;10795;50.796;3.860;2023-07-09T13:36:48;9.23;;;5.72;;
21270;SDS011;10795;50.796;3.860;2023-07-09T13:39:14;8.77;;;5.80;;
21270;SDS011;10795;50.796;3.860;2023-07-09T13:41:44;11.57;;;6.35;;
21270;SDS011;10795;50.796;3.860;2023-07-09T13:44:13;8.07;;;5.82;;
21270;SDS011;10795;50.796;3.860;2023-07-09T13:49:08;8.23;;;4.78;;
21270;SDS011;10795;50.796;3.860;2023-07-09T13:51:36;6.63;;;4.57;;
21270;SDS011;10795;50.796;3.860;2023-07-09T13:54:05;4.18;;;3.25;;
21270;SDS011;10795;50.796;3.860;2023-07-09T13:56:38;10.00;;;5.85;;
21270;SDS011;10795;50.796;3.860;2023-07-09T13:59:08;8.02;;;4.93;;
21270;SDS011;10795;50.796;3.860;2023-07-09T14:01:41;10.82;;;6.47;;
21270;SDS011;10795;50.796;3.860;2023-07-09T14:04:08;9.43;;;7.05;;
21270;SDS011;10795;50.796;3.860;2023-07-09T14:06:36;4.10;;;3.70;;
21270;SDS011;10795;50.796;3.860;2023-07-09T14:09:03;9.27;;;6.20;;
21270;SDS011;10795;50.796;3.860;2023-07-09T14:11:28;13.70;;;7.97;;
21270;SDS011;10795;50.796;3.860;2023-07-09T14:13:55;9.25;;;5.60;;
21270;SDS011;10795;50.796;3.860;2023-07-09T14:16:21;13.90;;;9.43;;
21270;SDS011;10795;50.796;3.860;2023-07-09T14:18:46;8.18;;;5.53;;
21270;SDS011;10795;50.796;3.860;2023-07-09T14:21:13;9.80;;;6.85;;
21270;SDS011;10795;50.796;3.860;2023-07-09T14:23:40;6.18;;;4.50;;
21270;SDS011;10795;50.796;3.860;2023-07-09T14:26:08;11.95;;;8.50;;
21270;SDS011;10795;50.796;3.860;2023-07-09T14:28:37;6.45;;;3.55;;
21270;SDS011;10795;50.796;3.860;2023-07-09T14:31:04;8.13;;;6.22;;
21270;SDS011;10795;50.796;3.860;2023-07-09T14:33:36;11.30;;;6.45;;
21270;SDS011;10795;50.796;3.860;2023-07-09T14:36:01;8.88;;;5.43;;
21270;SDS011;10795;50.796;3.860;2023-07-09T14:38:27;4.85;;;4.10;;
21270;SDS011;10795;50.796;3.860;2023-07-09T14:40:54;12.65;;;8.73;;
21270;SDS011;10795;50.796;3.860;2023-07-09T14:43:21;10.05;;;8.32;;
21270;SDS011;10795;50.796;3.860;2023-07-09T14:45:47;12.00;;;7.15;;
21270;SDS011;10795;50.796;3.860;2023-07-09T14:48:18;10.45;;;7.15;;
21270;SDS011;10795;50.796;3.860;2023-07-09T14:50:45;12.35;;;8.25;;
21270;SDS011;10795;50.796;3.860;2023-07-09T14:53:16;11.60;;;6.70;;
21270;SDS011;10795;50.796;3.860;2023-07-09T14:55:47;5.55;;;4.25;;
21270;SDS011;10795;50.796;3.860;2023-07-09T14:58:16;7.38;;;5.22;;
21270;SDS011;10795;50.796;3.860;2023-07-09T15:00:44;10.98;;;6.53;;
21270;SDS011;10795;50.796;3.860;2023-07-09T15:03:12;13.25;;;5.70;;
21270;SDS011;10795;50.796;3.860;2023-07-09T15:05:48;8.48;;;5.93;;
21270;SDS011;10795;50.796;3.860;2023-07-09T15:08:16;7.82;;;5.22;;
21270;SDS011;10795;50.796;3.860;2023-07-09T15:10:44;7.25;;;5.75;;
21270;SDS011;10795;50.796;3.860;2023-07-09T15:13:14;6.85;;;4.72;;
21270;SDS011;10795;50.796;3.860;2023-07-09T15:15:42;10.63;;;7.68;;
21270;SDS011;10795;50.796;3.860;2023-07-09T15:18:13;7.20;;;4.68;;
21270;SDS011;10795;50.796;3.860;2023-07-09T15:20:41;12.45;;;8.48;;
21270;SDS011;10795;50.796;3.860;2023-07-09T15:23:27;7.68;;;5.88;;
21270;SDS011;10795;50.796;3.860;2023-07-09T15:25:54;7.03;;;5.07;;
21270;SDS011;10795;50.796;3.860;2023-07-09T15:28:21;5.15;;;3.95;;
21270;SDS011;10795;50.796;3.860;2023-07-09T15:30:50;6.18;;;4.25;;
21270;SDS011;10795;50.796;3.860;2023-07-09T15:33:17;3.83;;;3.40;;
21270;SDS011;10795;50.796;3.860;2023-07-09T15:35:45;4.33;;;3.73;;
21270;SDS011;10795;50.796;3.860;2023-07-09T15:40:45;7.05;;;5.00;;
21270;SDS011;10795;50.796;3.860;2023-07-09T15:43:12;6.57;;;5.03;;
21270;SDS011;10795;50.796;3.860;2023-07-09T15:45:43;6.47;;;4.75;;
21270;SDS011;10795;50.796;3.860;2023-07-09T15:50:51;3.42;;;3.13;;